createdAt,value
2022-10-05T00:02:16.684Z,2.20
2022-10-05T00:05:23.960Z,1.90
2022-10-05T00:08:33.169Z,2.08
2022-10-05T00:11:40.939Z,2.20
2022-10-05T00:14:46.851Z,2.10
2022-10-05T00:17:52.060Z,2.08
2022-10-05T00:20:57.692Z,1.80
2022-10-05T00:24:03.858Z,2.53
2022-10-05T00:27:18.335Z,2.17
2022-10-05T00:30:24.263Z,2.20
2022-10-05T00:33:29.454Z,2.30
2022-10-05T00:36:35.381Z,2.38
2022-10-05T00:39:42.242Z,2.03
2022-10-05T00:42:53.947Z,2.17
2022-10-05T00:46:02.445Z,2.13
2022-10-05T00:49:10.940Z,1.98
2022-10-05T00:52:23.298Z,2.25
2022-10-05T00:55:33.167Z,1.98
2022-10-05T00:58:49.197Z,2.20
2022-10-05T01:01:56.681Z,2.20
2022-10-05T01:05:03.368Z,2.30
2022-10-05T01:08:14.285Z,2.10
2022-10-05T01:11:22.089Z,2.33
2022-10-05T01:14:32.613Z,2.00
2022-10-05T01:17:42.299Z,2.20
2022-10-05T01:20:51.435Z,2.70
2022-10-05T01:24:13.949Z,2.20
2022-10-05T01:27:24.463Z,2.20
2022-10-05T01:30:34.504Z,2.38
2022-10-05T01:33:44.236Z,1.98
2022-10-05T01:36:56.083Z,2.13
2022-10-05T01:40:05.460Z,2.60
2022-10-05T01:43:13.679Z,2.20
2022-10-05T01:46:26.682Z,2.60
2022-10-05T01:49:37.802Z,2.47
2022-10-05T01:52:47.181Z,2.20
2022-10-05T01:55:55.364Z,2.40
2022-10-05T01:59:05.639Z,2.20
2022-10-05T02:02:15.106Z,1.75
2022-10-05T02:05:23.010Z,2.17
2022-10-05T02:08:32.850Z,2.13
2022-10-05T02:11:39.111Z,2.22
2022-10-05T02:14:45.612Z,2.38
2022-10-05T02:17:55.252Z,2.58
2022-10-05T02:21:02.424Z,2.38
2022-10-05T02:24:11.493Z,2.33
2022-10-05T02:27:18.600Z,2.15
2022-10-05T02:30:24.287Z,2.20
2022-10-05T02:33:33.776Z,2.10
2022-10-05T02:36:44.119Z,2.00
2022-10-05T02:39:53.616Z,2.40
2022-10-05T02:43:03.547Z,2.45
2022-10-05T02:46:15.333Z,2.10
2022-10-05T02:49:28.741Z,2.30
2022-10-05T02:52:42.439Z,2.00
2022-10-05T02:55:53.027Z,1.90
2022-10-05T02:59:00.813Z,1.70
2022-10-05T03:02:14.345Z,1.92
2022-10-05T03:05:25.212Z,1.83
2022-10-05T03:08:36.164Z,1.80
2022-10-05T03:11:44.824Z,2.55
2022-10-05T03:14:54.461Z,1.92
2022-10-05T03:18:03.086Z,2.00
2022-10-05T03:21:17.645Z,2.30
2022-10-05T03:24:38.090Z,1.90
2022-10-05T03:27:46.712Z,2.20
2022-10-05T03:30:54.418Z,1.60
2022-10-05T03:34:03.309Z,1.77
2022-10-05T03:37:12.792Z,1.60
2022-10-05T03:40:23.558Z,1.50
2022-10-05T03:43:44.047Z,1.83
2022-10-05T03:47:01.611Z,1.60
2022-10-05T03:50:15.277Z,1.77
2022-10-05T03:53:25.223Z,1.67
2022-10-05T03:56:34.635Z,1.65
2022-10-05T03:59:42.619Z,2.17
2022-10-05T04:02:52.115Z,1.67
2022-10-05T04:05:58.769Z,1.88
2022-10-05T04:09:09.313Z,1.58
2022-10-05T04:12:19.595Z,1.98
2022-10-05T04:15:30.464Z,1.83
2022-10-05T04:18:37.270Z,1.80
2022-10-05T04:21:49.380Z,1.58
2022-10-05T04:25:01.693Z,1.80
2022-10-05T04:28:13.205Z,2.10
2022-10-05T04:31:23.310Z,1.58
2022-10-05T04:34:40.079Z,1.70
2022-10-05T04:37:48.196Z,1.70
2022-10-05T04:41:00.775Z,1.55
2022-10-05T04:44:16.203Z,2.17
2022-10-05T04:47:28.772Z,2.00
2022-10-05T04:50:41.750Z,2.25
2022-10-05T04:53:57.226Z,1.90
2022-10-05T04:57:07.578Z,1.95
2022-10-05T05:00:16.980Z,2.00
2022-10-05T05:03:29.595Z,1.70
2022-10-05T05:06:37.608Z,1.88
2022-10-05T05:09:51.520Z,1.65
2022-10-05T05:13:06.678Z,2.00
2022-10-05T05:16:14.170Z,2.00
2022-10-05T05:19:23.236Z,1.92
2022-10-05T05:22:32.195Z,2.20
2022-10-05T05:25:42.595Z,2.05
2022-10-05T05:28:53.006Z,1.98
2022-10-05T05:32:02.420Z,1.77
2022-10-05T05:35:15.739Z,1.70
2022-10-05T05:38:27.634Z,1.77
2022-10-05T05:41:39.050Z,2.20
2022-10-05T05:44:51.023Z,1.67
2022-10-05T05:47:57.767Z,1.70
2022-10-05T05:51:08.477Z,2.10
2022-10-05T05:54:21.134Z,1.60
2022-10-05T05:57:30.229Z,1.88
2022-10-05T06:00:40.938Z,1.50
2022-10-05T06:03:49.452Z,1.77
2022-10-05T06:06:55.449Z,1.67
2022-10-05T06:10:04.934Z,1.38
2022-10-05T06:13:21.221Z,1.27
2022-10-05T06:16:33.685Z,1.20
2022-10-05T06:19:39.952Z,1.00
2022-10-05T06:22:46.705Z,2.00
2022-10-05T06:26:02.003Z,0.50
2022-10-05T06:29:08.714Z,0.70
2022-10-05T06:32:19.581Z,0.40
2022-10-05T06:35:31.605Z,0.40
2022-10-05T06:38:42.183Z,0.90
2022-10-05T06:41:53.504Z,0.60
2022-10-05T06:45:04.313Z,0.60
2022-10-05T06:48:23.189Z,0.55
2022-10-05T06:51:58.426Z,0.90
2022-10-05T06:55:18.504Z,0.75
2022-10-05T06:58:29.466Z,0.65
2022-10-05T07:01:39.813Z,0.68
2022-10-05T07:05:01.663Z,0.80
2022-10-05T07:08:11.118Z,1.10
2022-10-05T07:14:32.626Z,1.40
2022-10-05T07:17:45.961Z,1.52
2022-10-05T07:20:57.833Z,2.08
2022-10-05T07:24:06.796Z,1.85
2022-10-05T07:27:16.391Z,1.30
2022-10-05T07:30:22.010Z,1.00
2022-10-05T07:33:28.597Z,1.35
2022-10-05T07:36:54.859Z,1.40
2022-10-05T07:40:13.701Z,1.20
2022-10-05T07:43:32.069Z,1.13
2022-10-05T07:46:51.190Z,1.30
2022-10-05T07:50:00.031Z,1.15
2022-10-05T07:53:09.584Z,1.50
2022-10-05T07:56:19.369Z,1.10
2022-10-05T07:59:28.395Z,1.20
2022-10-05T08:02:36.649Z,1.10
2022-10-05T08:05:44.804Z,1.20
2022-10-05T08:08:57.387Z,1.00
2022-10-05T08:12:07.100Z,1.10
2022-10-05T08:15:17.092Z,1.30
2022-10-05T08:18:23.172Z,1.40
2022-10-05T08:21:30.742Z,1.40
2022-10-05T08:24:43.949Z,1.20
2022-10-05T08:27:51.277Z,1.33
2022-10-05T08:30:58.816Z,1.10
2022-10-05T08:34:07.888Z,1.80
2022-10-05T08:37:17.180Z,0.90
2022-10-05T08:40:41.452Z,0.98
2022-10-05T08:43:57.599Z,1.10
2022-10-05T08:47:19.667Z,1.15
2022-10-05T08:50:29.103Z,1.05
2022-10-05T08:53:46.016Z,1.30
2022-10-05T08:56:58.912Z,1.17
2022-10-05T09:00:11.106Z,1.15
2022-10-05T09:03:25.119Z,1.00
2022-10-05T09:06:35.682Z,1.33
2022-10-05T09:09:53.017Z,2.20
2022-10-05T09:13:18.611Z,0.93
2022-10-05T09:16:44.371Z,1.00
2022-10-05T09:20:10.018Z,0.90
2022-10-05T09:23:24.849Z,0.57
2022-10-05T09:26:45.785Z,0.77
2022-10-05T09:30:05.576Z,0.70
2022-10-05T09:33:18.849Z,0.73
2022-10-05T09:36:39.304Z,0.50
2022-10-05T09:40:01.211Z,0.55
2022-10-05T09:43:20.421Z,0.60
2022-10-05T09:46:39.430Z,0.70
2022-10-05T09:49:59.784Z,0.85
2022-10-05T09:53:13.669Z,3.83
2022-10-05T10:00:09.125Z,0.47
2022-10-05T10:03:24.626Z,0.85
2022-10-05T10:06:44.710Z,0.82
2022-10-05T10:09:58.319Z,0.45
2022-10-05T10:13:18.129Z,0.60
2022-10-05T10:16:33.401Z,0.40
2022-10-05T10:19:56.629Z,0.68
2022-10-05T10:23:11.045Z,0.55
2022-10-05T10:26:25.294Z,0.80
2022-10-05T10:29:41.150Z,0.60
2022-10-05T10:33:11.701Z,0.65
2022-10-05T10:36:19.908Z,0.85
2022-10-05T10:39:28.034Z,0.52
2022-10-05T10:42:40.698Z,0.60
2022-10-05T10:45:56.920Z,0.90
2022-10-05T10:49:06.875Z,0.63
2022-10-05T10:52:19.222Z,0.50
2022-10-05T10:55:32.585Z,0.50
2022-10-05T10:58:57.963Z,0.60
2022-10-05T11:02:20.846Z,0.70
2022-10-05T11:05:35.044Z,0.77
2022-10-05T11:08:54.680Z,0.77
2022-10-05T11:12:14.604Z,1.05
2022-10-05T11:15:34.498Z,1.23
2022-10-05T11:19:00.978Z,1.15
2022-10-05T11:22:16.980Z,1.05
2022-10-05T11:25:36.787Z,0.93
2022-10-05T11:28:55.148Z,0.88
2022-10-05T11:32:17.460Z,1.05
2022-10-05T11:35:26.658Z,1.15
2022-10-05T11:38:40.547Z,0.60
2022-10-05T11:41:55.686Z,0.85
2022-10-05T11:45:27.769Z,0.77
2022-10-05T11:48:47.914Z,0.80
2022-10-05T11:51:58.040Z,0.57
2022-10-05T11:55:16.226Z,0.63
2022-10-05T11:58:24.926Z,0.50
2022-10-05T12:01:32.190Z,1.30
2022-10-05T12:04:40.136Z,0.88
2022-10-05T12:07:49.913Z,1.00
2022-10-05T12:11:02.762Z,0.70
2022-10-05T12:14:10.117Z,0.80
2022-10-05T12:17:20.160Z,0.60
2022-10-05T12:20:28.987Z,0.90
2022-10-05T12:23:37.232Z,0.60
2022-10-05T12:26:47.887Z,0.85
2022-10-05T12:29:55.288Z,0.88
2022-10-05T12:33:03.746Z,0.60
2022-10-05T12:39:18.162Z,0.70
2022-10-05T12:42:30.371Z,0.90
2022-10-05T12:45:43.706Z,1.05
2022-10-05T12:49:09.738Z,0.70
2022-10-05T12:52:18.326Z,0.82
2022-10-05T13:01:42.022Z,0.68
2022-10-05T13:04:50.624Z,0.80
2022-10-05T13:08:03.742Z,0.70
2022-10-05T13:11:14.996Z,0.60
2022-10-05T13:14:37.770Z,0.52
2022-10-05T13:17:49.455Z,0.60
2022-10-05T13:20:59.708Z,0.60
2022-10-05T13:24:07.812Z,0.50
2022-10-05T13:27:16.890Z,0.60
2022-10-05T13:30:22.513Z,0.60
2022-10-05T13:33:40.552Z,0.60
2022-10-05T13:36:51.107Z,0.95
2022-10-05T13:40:02.298Z,0.80
2022-10-05T13:43:12.951Z,0.90
2022-10-05T13:46:22.609Z,0.90
2022-10-05T13:49:34.676Z,0.70
2022-10-05T13:52:43.245Z,0.80
2022-10-05T13:58:54.932Z,0.63
2022-10-05T14:02:01.701Z,0.70
2022-10-05T14:05:18.548Z,0.70
2022-10-05T14:08:28.282Z,0.85
2022-10-05T14:11:35.089Z,1.00
2022-10-05T14:14:46.323Z,0.70
2022-10-05T14:17:51.923Z,0.57
2022-10-05T14:21:04.221Z,0.60
2022-10-05T14:24:43.720Z,0.60
2022-10-05T14:27:54.108Z,0.80
2022-10-05T14:30:59.769Z,0.50
2022-10-05T14:34:19.807Z,0.50
2022-10-05T14:37:28.383Z,0.88
2022-10-05T14:40:34.871Z,0.80
2022-10-05T14:43:40.309Z,1.00
2022-10-05T14:46:54.999Z,1.20
2022-10-05T14:50:15.768Z,1.10
2022-10-05T14:53:25.179Z,0.88
2022-10-05T14:56:46.450Z,0.60
2022-10-05T14:59:59.825Z,0.35
2022-10-05T15:03:18.282Z,0.38
2022-10-05T15:09:45.854Z,0.40
2022-10-05T15:12:55.539Z,0.52
2022-10-05T15:16:03.425Z,0.40
2022-10-05T15:19:16.272Z,0.50
2022-10-05T15:22:32.147Z,0.60
2022-10-05T15:25:40.706Z,0.50
2022-10-05T15:28:53.040Z,0.73
2022-10-05T15:32:01.032Z,0.85
2022-10-05T15:35:18.683Z,0.73
2022-10-05T15:38:25.737Z,1.10
2022-10-05T15:41:44.019Z,0.70
2022-10-05T15:44:55.466Z,1.30
2022-10-05T15:48:02.548Z,0.93
2022-10-05T15:51:15.444Z,0.70
2022-10-05T15:54:37.484Z,0.90
2022-10-05T15:57:48.149Z,0.90
2022-10-05T16:01:00.427Z,1.48
2022-10-05T16:04:08.603Z,1.10
2022-10-05T16:07:28.514Z,1.25
2022-10-05T16:10:36.054Z,1.67
2022-10-05T16:13:43.930Z,1.00
2022-10-05T16:16:58.695Z,1.38
2022-10-05T16:20:14.918Z,1.08
2022-10-05T16:23:26.406Z,0.80
2022-10-05T16:26:34.526Z,1.50
2022-10-05T16:29:42.438Z,0.80
2022-10-05T16:32:55.512Z,1.05
2022-10-05T16:36:05.493Z,0.90
2022-10-05T16:39:14.366Z,1.20
2022-10-05T16:42:24.483Z,1.00
2022-10-05T16:45:46.022Z,0.85
2022-10-05T16:48:57.884Z,1.00
2022-10-05T16:52:05.713Z,1.00
2022-10-05T16:55:15.101Z,0.80
2022-10-05T16:58:24.332Z,0.77
2022-10-05T17:01:42.557Z,0.98
2022-10-05T17:04:58.467Z,1.10
2022-10-05T17:08:15.454Z,0.95
2022-10-05T17:11:26.217Z,1.00
2022-10-05T17:14:37.194Z,1.20
2022-10-05T17:17:51.441Z,1.42
2022-10-05T17:21:05.719Z,1.15
2022-10-05T17:24:21.926Z,1.13
2022-10-05T17:27:32.255Z,1.30
2022-10-05T17:30:54.263Z,1.10
2022-10-05T17:34:28.402Z,1.48
2022-10-05T17:37:41.681Z,1.30
2022-10-05T17:41:03.269Z,1.50
2022-10-05T17:44:25.016Z,1.25
2022-10-05T17:47:47.514Z,0.90
2022-10-05T17:51:05.268Z,4.90
2022-10-05T17:54:38.709Z,6.72
2022-10-05T17:57:44.103Z,1.45
2022-10-05T18:01:07.310Z,1.40
2022-10-05T18:04:29.666Z,1.77
2022-10-05T18:07:35.812Z,1.80
2022-10-05T18:11:03.498Z,1.90
2022-10-05T18:14:18.736Z,2.20
2022-10-05T18:17:38.839Z,2.03
2022-10-05T18:20:45.125Z,1.90
2022-10-05T18:23:52.994Z,1.85
2022-10-05T18:27:05.955Z,1.92
2022-10-05T18:30:19.707Z,1.80
2022-10-05T18:33:36.211Z,1.92
2022-10-05T18:36:49.814Z,1.80
2022-10-05T18:40:01.833Z,1.65
2022-10-05T18:43:18.696Z,2.20
2022-10-05T18:46:27.136Z,1.63
2022-10-05T18:52:49.561Z,2.10
2022-10-05T18:55:57.160Z,1.80
2022-10-05T18:59:10.645Z,2.38
2022-10-05T19:02:23.338Z,2.00
2022-10-05T19:05:48.391Z,1.98
2022-10-05T19:08:56.233Z,2.17
2022-10-05T19:12:04.380Z,2.22
2022-10-05T19:15:15.352Z,1.80
2022-10-05T19:18:38.967Z,1.60
2022-10-05T19:21:48.751Z,1.60
2022-10-05T19:25:00.247Z,1.60
2022-10-05T19:28:10.565Z,1.77
2022-10-05T19:31:25.942Z,1.90
2022-10-05T19:34:39.686Z,1.73
2022-10-05T19:37:48.780Z,2.00
2022-10-05T19:40:58.965Z,2.33
2022-10-05T19:44:11.093Z,1.42
2022-10-05T19:47:28.756Z,1.65
2022-10-05T19:50:36.049Z,1.77
2022-10-05T19:53:41.579Z,2.05
2022-10-05T19:56:49.972Z,2.10
2022-10-05T19:59:59.277Z,2.55
2022-10-05T20:03:19.762Z,1.98
2022-10-05T20:06:27.028Z,1.77
2022-10-05T20:09:32.625Z,1.67
2022-10-05T20:12:54.040Z,1.45
2022-10-05T20:19:50.279Z,1.52
2022-10-05T20:22:55.361Z,1.55
2022-10-05T20:26:12.477Z,1.85
2022-10-05T20:29:17.587Z,1.40
2022-10-05T20:32:22.507Z,1.60
2022-10-05T20:35:31.047Z,1.77
2022-10-05T20:38:40.603Z,1.63
2022-10-05T20:41:46.511Z,1.58
2022-10-05T20:44:56.483Z,1.60
2022-10-05T20:48:03.180Z,1.50
2022-10-05T20:51:11.002Z,1.50
2022-10-05T20:54:19.157Z,1.50
2022-10-05T20:57:24.472Z,1.75
2022-10-05T21:00:50.354Z,1.65
2022-10-05T21:03:55.737Z,1.88
2022-10-05T21:07:04.287Z,1.83
2022-10-05T21:10:09.845Z,1.77
2022-10-05T21:13:17.846Z,2.00
2022-10-05T21:16:25.039Z,1.90
2022-10-05T21:19:30.284Z,1.65
2022-10-05T21:22:38.045Z,1.65
2022-10-05T21:25:43.141Z,1.73
2022-10-05T21:28:48.228Z,1.80
2022-10-05T21:31:53.482Z,1.90
2022-10-05T21:34:58.668Z,1.58
2022-10-05T21:38:06.546Z,1.90
2022-10-05T21:41:11.868Z,2.45
2022-10-05T21:44:16.969Z,2.20
2022-10-05T21:47:22.152Z,1.85
2022-10-05T21:50:27.934Z,1.70
2022-10-05T21:53:38.073Z,2.75
2022-10-05T21:56:44.388Z,1.88
2022-10-05T21:59:49.876Z,2.00
2022-10-05T22:02:55.020Z,2.20
2022-10-05T22:06:00.349Z,1.80
2022-10-05T22:09:08.456Z,1.80
2022-10-05T22:12:13.508Z,2.17
2022-10-05T22:15:18.739Z,1.90
2022-10-05T22:18:23.725Z,1.75
2022-10-05T22:21:28.978Z,1.90
2022-10-05T22:24:36.647Z,1.73
2022-10-05T22:27:42.119Z,1.90
2022-10-05T22:30:47.876Z,2.10
2022-10-05T22:33:53.126Z,2.25
2022-10-05T22:36:58.185Z,1.75
2022-10-05T22:40:05.855Z,1.75
2022-10-05T22:43:11.699Z,1.67
2022-10-05T22:46:17.116Z,1.70
2022-10-05T22:49:22.221Z,1.48
2022-10-05T22:52:27.243Z,1.95
2022-10-05T22:55:34.927Z,1.88
2022-10-05T22:58:40.032Z,1.50
2022-10-05T23:01:45.265Z,1.60
2022-10-05T23:04:50.460Z,1.90
2022-10-05T23:07:55.393Z,1.42
2022-10-05T23:11:06.485Z,1.45
2022-10-05T23:14:11.608Z,1.60
2022-10-05T23:17:16.550Z,1.73
2022-10-05T23:20:21.912Z,1.67
2022-10-05T23:23:27.655Z,2.03
2022-10-05T23:26:35.828Z,1.52
2022-10-05T23:29:41.221Z,1.40
2022-10-05T23:32:46.954Z,1.60
2022-10-05T23:35:52.143Z,1.67
2022-10-05T23:38:57.610Z,1.90
2022-10-05T23:42:05.301Z,1.98
2022-10-05T23:45:11.398Z,1.80
2022-10-05T23:48:16.615Z,1.73
2022-10-05T23:51:21.862Z,1.80
2022-10-05T23:54:26.973Z,1.40
2022-10-05T23:57:34.876Z,1.60
